Time,TemperatureF,DewpointF,PressureIn,WindDirection,WindDirectionDegrees,WindSpeedMPH,WindSpeedGustMPH,Humidity,HourlyPrecipIn,Conditions,Clouds,dailyrainin,SolarRadiationWatts/m^2,SoftwareType,DateUTC
2013-04-04 00:02:00,31.0,15.0,-100.00,South,189,2.0,5.0,51,0.00,,,0.00,0.000000,,2013-04-04 05:02:00,
2013-04-04 00:12:00,29.0,15.0,-100.00,SSW,205,0.0,4.0,55,0.00,,,0.00,0.000000,,2013-04-04 05:12:00,
2013-04-04 00:32:00,29.0,15.0,-100.00,SSW,205,0.0,4.0,55,0.00,,,0.00,0.000000,,2013-04-04 05:32:00,
2013-04-04 00:42:00,29.0,15.0,-100.00,SSW,205,0.0,4.0,55,0.00,,,0.00,0.000000,,2013-04-04 05:42:00,
2013-04-04 00:53:00,29.0,15.0,-100.00,SSW,205,0.0,4.0,55,0.00,,,0.00,0.000000,,2013-04-04 05:53:00,
2013-04-04 01:02:00,29.0,15.0,-100.00,SSW,205,0.0,4.0,55,0.00,,,0.00,0.000000,,2013-04-04 06:02:00,
2013-04-04 01:12:00,30.0,16.0,-100.00,SSW,192,2.0,5.0,56,0.00,,,0.00,0.000000,,2013-04-04 06:12:00,
2013-04-04 01:33:00,30.0,16.0,-100.00,SSW,192,2.0,5.0,56,0.00,,,0.00,0.000000,,2013-04-04 06:33:00,
2013-04-04 01:43:00,30.0,16.0,-100.00,SSW,192,2.0,5.0,56,0.00,,,0.00,0.000000,,2013-04-04 06:43:00,
2013-04-04 01:53:00,30.0,16.0,-100.00,SSW,192,2.0,5.0,56,0.00,,,0.00,0.000000,,2013-04-04 06:53:00,
2013-04-04 02:02:00,30.0,16.0,-100.00,SSW,192,2.0,5.0,56,0.00,,,0.00,0.000000,,2013-04-04 07:02:00,
2013-04-04 02:12:00,29.0,17.0,-100.00,SSW,199,3.0,5.0,60,0.00,,,0.00,0.000000,,2013-04-04 07:12:00,
2013-04-04 02:43:00,29.0,17.0,-100.00,SSW,199,3.0,5.0,60,0.00,,,0.00,0.000000,,2013-04-04 07:43:00,
2013-04-04 02:53:00,29.0,17.0,-100.00,SSW,199,3.0,5.0,60,0.00,,,0.00,0.000000,,2013-04-04 07:53:00,
2013-04-04 03:02:00,29.0,17.0,-100.00,SSW,199,3.0,5.0,60,0.00,,,0.00,0.000000,,2013-04-04 08:02:00,
2013-04-04 03:12:00,30.0,17.0,-100.00,SSW,197,4.0,6.0,58,0.00,,,0.00,0.000000,,2013-04-04 08:12:00,
2013-04-04 03:43:00,30.0,17.0,-100.00,SSW,197,4.0,6.0,58,0.00,,,0.00,0.000000,,2013-04-04 08:43:00,
2013-04-04 03:52:00,30.0,17.0,-100.00,SSW,197,4.0,6.0,58,0.00,,,0.00,0.000000,,2013-04-04 08:52:00,
2013-04-04 04:03:00,30.0,17.0,-100.00,SSW,197,4.0,6.0,58,0.00,,,0.00,0.000000,,2013-04-04 09:03:00,
2013-04-04 04:12:00,30.0,17.0,-100.00,SSW,194,4.0,7.0,59,0.00,,,0.00,0.000000,,2013-04-04 09:12:00,
2013-04-04 04:34:00,30.0,17.0,-100.00,SSW,194,4.0,7.0,59,0.00,,,0.00,0.000000,,2013-04-04 09:34:00,
2013-04-04 04:44:00,30.0,17.0,-100.00,SSW,194,4.0,7.0,59,0.00,,,0.00,0.000000,,2013-04-04 09:44:00,
2013-04-04 04:54:00,30.0,17.0,-100.00,SSW,194,4.0,7.0,59,0.00,,,0.00,0.000000,,2013-04-04 09:54:00,
2013-04-04 05:04:00,30.0,17.0,-100.00,SSW,194,4.0,7.0,59,0.00,,,0.00,0.000000,,2013-04-04 10:04:00,
2013-04-04 05:12:00,30.0,17.0,-100.00,SSW,204,3.0,7.0,59,0.00,,,0.00,0.000000,,2013-04-04 10:12:00,
2013-04-04 05:43:00,30.0,17.0,-100.00,SSW,204,3.0,7.0,59,0.00,,,0.00,0.000000,,2013-04-04 10:43:00,
2013-04-04 05:54:00,30.0,17.0,-100.00,SSW,204,3.0,7.0,59,0.00,,,0.00,0.000000,,2013-04-04 10:54:00,
2013-04-04 06:02:00,30.0,17.0,-100.00,SSW,204,3.0,7.0,59,0.00,,,0.00,0.000000,,2013-04-04 11:02:00,
2013-04-04 06:12:00,31.0,18.0,-100.00,SSW,198,5.0,8.0,58,0.00,,,0.00,0.000000,,2013-04-04 11:12:00,
2013-04-04 06:33:00,31.0,18.0,-100.00,SSW,198,5.0,8.0,58,0.00,,,0.00,0.000000,,2013-04-04 11:33:00,
2013-04-04 06:43:00,31.0,18.0,-100.00,SSW,198,5.0,8.0,58,0.00,,,0.00,0.000000,,2013-04-04 11:43:00,
2013-04-04 06:54:00,31.0,18.0,-100.00,SSW,198,5.0,8.0,58,0.00,,,0.00,0.000000,,2013-04-04 11:54:00,
2013-04-04 07:02:00,31.0,18.0,-100.00,SSW,198,5.0,8.0,58,0.00,,,0.00,0.000000,,2013-04-04 12:02:00,
2013-04-04 07:12:00,32.0,18.0,-100.00,SSW,199,6.0,10.0,56,0.00,,,0.00,13.000000,,2013-04-04 12:12:00,
2013-04-04 07:33:00,32.0,18.0,-100.00,SSW,199,6.0,10.0,56,0.00,,,0.00,13.000000,,2013-04-04 12:33:00,
2013-04-04 07:44:00,32.0,18.0,-100.00,SSW,199,6.0,10.0,56,0.00,,,0.00,13.000000,,2013-04-04 12:44:00,
2013-04-04 07:52:00,32.0,18.0,-100.00,SSW,199,6.0,10.0,56,0.00,,,0.00,13.000000,,2013-04-04 12:52:00,
2013-04-04 08:02:00,32.0,18.0,-100.00,SSW,199,6.0,10.0,56,0.00,,,0.00,13.000000,,2013-04-04 13:02:00,
2013-04-04 08:12:00,38.0,19.0,-100.00,SW,222,6.0,11.0,46,0.00,,,0.00,152.000000,,2013-04-04 13:12:00,
2013-04-04 08:43:00,38.0,19.0,-100.00,SW,222,6.0,11.0,46,0.00,,,0.00,152.000000,,2013-04-04 13:43:00,
2013-04-04 08:53:00,38.0,19.0,-100.00,SW,222,6.0,11.0,46,0.00,,,0.00,152.000000,,2013-04-04 13:53:00,
2013-04-04 09:03:00,38.0,19.0,-100.00,SW,222,6.0,11.0,46,0.00,,,0.00,152.000000,,2013-04-04 14:03:00,
2013-04-04 09:12:00,42.0,19.0,-100.00,SW,224,7.0,13.0,40,0.00,,,0.00,249.000000,,2013-04-04 14:12:00,
2013-04-04 09:43:00,42.0,19.0,-100.00,SW,224,7.0,13.0,40,0.00,,,0.00,249.000000,,2013-04-04 14:43:00,
2013-04-04 09:53:00,42.0,19.0,-100.00,SW,224,7.0,13.0,40,0.00,,,0.00,249.000000,,2013-04-04 14:53:00,
2013-04-04 10:02:00,42.0,19.0,-100.00,SW,224,7.0,13.0,40,0.00,,,0.00,249.000000,,2013-04-04 15:02:00,
2013-04-04 10:12:00,47.0,20.0,-100.00,SW,230,10.0,20.0,34,0.00,,,0.00,508.000000,,2013-04-04 15:12:00,
2013-04-04 10:34:00,47.0,20.0,-100.00,SW,230,10.0,20.0,34,0.00,,,0.00,508.000000,,2013-04-04 15:34:00,
2013-04-04 10:43:00,47.0,20.0,-100.00,SW,230,10.0,20.0,34,0.00,,,0.00,508.000000,,2013-04-04 15:43:00,
2013-04-04 10:54:00,47.0,20.0,-100.00,SW,230,10.0,20.0,34,0.00,,,0.00,508.000000,,2013-04-04 15:54:00,
2013-04-04 11:03:00,47.0,20.0,-100.00,SW,230,10.0,20.0,34,0.00,,,0.00,508.000000,,2013-04-04 16:03:00,
2013-04-04 11:12:00,50.0,23.0,-100.00,SW,234,10.0,20.0,34,0.00,,,0.00,679.000000,,2013-04-04 16:12:00,
2013-04-04 11:43:00,50.0,23.0,-100.00,SW,234,10.0,20.0,34,0.00,,,0.00,679.000000,,2013-04-04 16:43:00,
2013-04-04 11:54:00,50.0,23.0,-100.00,SW,234,10.0,20.0,34,0.00,,,0.00,679.000000,,2013-04-04 16:54:00,
2013-04-04 12:03:00,50.0,23.0,-100.00,SW,234,10.0,20.0,34,0.00,,,0.00,679.000000,,2013-04-04 17:03:00,
2013-04-04 12:12:00,51.0,24.0,-100.00,WSW,244,10.0,19.0,34,0.00,,,0.00,797.000000,,2013-04-04 17:12:00,
2013-04-04 12:43:00,51.0,24.0,-100.00,WSW,244,10.0,19.0,34,0.00,,,0.00,797.000000,,2013-04-04 17:43:00,
2013-04-04 12:53:00,51.0,24.0,-100.00,WSW,244,10.0,19.0,34,0.00,,,0.00,797.000000,,2013-04-04 17:53:00,
2013-04-04 13:02:00,51.0,24.0,-100.00,WSW,244,10.0,19.0,34,0.00,,,0.00,797.000000,,2013-04-04 18:02:00,
2013-04-04 13:12:00,50.0,25.0,-100.00,West,271,8.0,18.0,38,0.00,,,0.00,453.000000,,2013-04-04 18:12:00,
2013-04-04 13:43:00,50.0,25.0,-100.00,West,271,8.0,18.0,38,0.00,,,0.00,453.000000,,2013-04-04 18:43:00,
2013-04-04 13:52:00,50.0,25.0,-100.00,West,271,8.0,18.0,38,0.00,,,0.00,453.000000,,2013-04-04 18:52:00,
2013-04-04 14:02:00,50.0,25.0,-100.00,West,271,8.0,18.0,38,0.00,,,0.00,453.000000,,2013-04-04 19:02:00,
2013-04-04 14:12:00,50.0,28.0,-100.00,WNW,286,8.0,17.0,43,0.00,,,0.00,408.000000,,2013-04-04 19:12:00,
2013-04-04 14:33:00,50.0,28.0,-100.00,WNW,286,8.0,17.0,43,0.00,,,0.00,408.000000,,2013-04-04 19:33:00,
2013-04-04 14:43:00,50.0,28.0,-100.00,WNW,286,8.0,17.0,43,0.00,,,0.00,408.000000,,2013-04-04 19:43:00,
2013-04-04 14:52:00,50.0,28.0,-100.00,WNW,286,8.0,17.0,43,0.00,,,0.00,408.000000,,2013-04-04 19:52:00,
2013-04-04 15:03:00,50.0,28.0,-100.00,WNW,286,8.0,17.0,43,0.00,,,0.00,408.000000,,2013-04-04 20:03:00,
2013-04-04 15:12:00,53.0,31.0,-100.00,WNW,295,9.0,17.0,42,0.00,,,0.00,686.000000,,2013-04-04 20:12:00,
2013-04-04 15:42:00,53.0,31.0,-100.00,WNW,295,9.0,17.0,42,0.00,,,0.00,686.000000,,2013-04-04 20:42:00,
2013-04-04 15:53:00,53.0,31.0,-100.00,WNW,295,9.0,17.0,42,0.00,,,0.00,686.000000,,2013-04-04 20:53:00,
2013-04-04 16:02:00,53.0,31.0,-100.00,WNW,295,9.0,17.0,42,0.00,,,0.00,686.000000,,2013-04-04 21:02:00,
2013-04-04 16:12:00,53.0,31.0,-100.00,NW,306,11.0,18.0,42,0.00,,,0.00,649.000000,,2013-04-04 21:12:00,
2013-04-04 16:43:00,53.0,31.0,-100.00,NW,306,11.0,18.0,42,0.00,,,0.00,649.000000,,2013-04-04 21:43:00,
2013-04-04 16:53:00,53.0,31.0,-100.00,NW,306,11.0,18.0,42,0.00,,,0.00,649.000000,,2013-04-04 21:53:00,
2013-04-04 17:03:00,53.0,31.0,-100.00,NW,306,11.0,18.0,42,0.00,,,0.00,649.000000,,2013-04-04 22:03:00,
2013-04-04 17:12:00,52.0,30.0,-100.00,NNW,327,10.0,17.0,42,0.00,,,0.00,470.000000,,2013-04-04 22:12:00,
2013-04-04 17:43:00,52.0,30.0,-100.00,NNW,327,10.0,17.0,42,0.00,,,0.00,470.000000,,2013-04-04 22:43:00,
2013-04-04 17:53:00,52.0,30.0,-100.00,NNW,327,10.0,17.0,42,0.00,,,0.00,470.000000,,2013-04-04 22:53:00,
2013-04-04 18:03:00,52.0,30.0,-100.00,NNW,327,10.0,17.0,42,0.00,,,0.00,470.000000,,2013-04-04 23:03:00,
2013-04-04 18:12:00,50.0,28.0,-100.00,NW,320,9.0,18.0,42,0.00,,,0.00,273.000000,,2013-04-04 23:12:00,
2013-04-04 18:32:00,50.0,28.0,-100.00,NW,320,9.0,18.0,42,0.00,,,0.00,273.000000,,2013-04-04 23:32:00,
2013-04-04 18:42:00,50.0,28.0,-100.00,NW,320,9.0,18.0,42,0.00,,,0.00,273.000000,,2013-04-04 23:42:00,
2013-04-04 18:52:00,50.0,28.0,-100.00,NW,320,9.0,18.0,42,0.00,,,0.00,273.000000,,2013-04-04 23:52:00,
2013-04-04 19:02:00,50.0,28.0,-100.00,NW,320,9.0,18.0,42,0.00,,,0.00,273.000000,,2013-04-05 00:02:00,
2013-04-04 20:12:00,45.0,25.0,-100.00,NW,319,8.0,13.0,46,-99.99,,,0.00,4.000000,,2013-04-05 01:12:00,
2013-04-04 20:32:00,45.0,25.0,-100.00,NW,319,8.0,13.0,46,-99.99,,,0.00,4.000000,,2013-04-05 01:32:00,
2013-04-04 20:42:00,45.0,25.0,-100.00,NW,319,8.0,13.0,46,-99.99,,,0.00,4.000000,,2013-04-05 01:42:00,
2013-04-04 20:53:00,45.0,25.0,-100.00,NW,319,8.0,13.0,46,-99.99,,,0.00,4.000000,,2013-04-05 01:53:00,
2013-04-04 21:03:00,45.0,25.0,-100.00,NW,319,8.0,13.0,46,-99.99,,,0.00,4.000000,,2013-04-05 02:03:00,
2013-04-04 21:12:00,40.0,24.0,-100.00,WNW,300,4.0,9.0,52,0.00,,,0.00,0.000000,,2013-04-05 02:12:00,
2013-04-04 21:42:00,40.0,24.0,-100.00,WNW,300,4.0,9.0,52,0.00,,,0.00,0.000000,,2013-04-05 02:42:00,
2013-04-04 21:52:00,40.0,24.0,-100.00,WNW,300,4.0,9.0,52,0.00,,,0.00,0.000000,,2013-04-05 02:52:00,
2013-04-04 22:02:00,40.0,24.0,-100.00,WNW,300,4.0,9.0,52,0.00,,,0.00,0.000000,,2013-04-05 03:02:00,
2013-04-04 22:12:00,41.0,24.0,-100.00,NW,307,6.0,10.0,50,0.00,,,0.00,0.000000,,2013-04-05 03:12:00,
2013-04-04 22:33:00,41.0,24.0,-100.00,NW,307,6.0,10.0,50,0.00,,,0.00,0.000000,,2013-04-05 03:33:00,
2013-04-04 22:43:00,41.0,24.0,-100.00,NW,307,6.0,10.0,50,0.00,,,0.00,0.000000,,2013-04-05 03:43:00,
2013-04-04 22:54:00,41.0,24.0,-100.00,NW,307,6.0,10.0,50,0.00,,,0.00,0.000000,,2013-04-05 03:54:00,
2013-04-04 23:02:00,41.0,24.0,-100.00,NW,307,6.0,10.0,50,0.00,,,0.00,0.000000,,2013-04-05 04:02:00,
2013-04-04 23:12:00,39.0,23.0,-100.00,NW,326,7.0,11.0,52,0.00,,,0.00,0.000000,,2013-04-05 04:12:00,
2013-04-04 23:42:00,39.0,23.0,-100.00,NW,326,7.0,11.0,52,0.00,,,0.00,0.000000,,2013-04-05 04:42:00,
2013-04-04 23:52:00,39.0,23.0,-100.00,NW,326,7.0,11.0,52,0.00,,,0.00,0.000000,,2013-04-05 04:52:00,